sensor_id;sensor_type;location;lat;lon;timestamp;P1;durP1;ratioP1;P2;durP2;ratioP2
2840;SDS011;53423;49.224;12.074;2022-11-11T00:01:09;30.00;;;9.93;;
2840;SDS011;53423;49.224;12.074;2022-11-11T00:03:39;19.70;;;9.03;;
2840;SDS011;53423;49.224;12.074;2022-11-11T00:06:08;30.37;;;10.90;;
2840;SDS011;53423;49.224;12.074;2022-11-11T00:08:39;30.17;;;12.60;;
2840;SDS011;53423;49.224;12.074;2022-11-11T00:11:08;34.37;;;12.80;;
2840;SDS011;53423;49.224;12.074;2022-11-11T00:13:38;43.13;;;13.50;;
2840;SDS011;53423;49.224;12.074;2022-11-11T00:16:06;32.80;;;11.50;;
2840;SDS011;53423;49.224;12.074;2022-11-11T00:18:36;33.60;;;10.80;;
2840;SDS011;53423;49.224;12.074;2022-11-11T00:21:22;36.73;;;12.67;;
2840;SDS011;53423;49.224;12.074;2022-11-11T00:24:16;30.47;;;11.40;;
2840;SDS011;53423;49.224;12.074;2022-11-11T00:27:05;38.57;;;10.20;;
2840;SDS011;53423;49.224;12.074;2022-11-11T00:29:33;25.07;;;9.30;;
2840;SDS011;53423;49.224;12.074;2022-11-11T00:32:02;29.43;;;9.80;;
2840;SDS011;53423;49.224;12.074;2022-11-11T00:34:50;19.67;;;9.00;;
2840;SDS011;53423;49.224;12.074;2022-11-11T00:37:36;34.63;;;10.43;;
2840;SDS011;53423;49.224;12.074;2022-11-11T00:40:06;18.80;;;10.23;;
2840;SDS011;53423;49.224;12.074;2022-11-11T00:42:35;17.53;;;9.33;;
2840;SDS011;53423;49.224;12.074;2022-11-11T00:45:03;34.47;;;10.63;;
2840;SDS011;53423;49.224;12.074;2022-11-11T00:47:32;28.67;;;10.87;;
2840;SDS011;53423;49.224;12.074;2022-11-11T00:50:18;22.73;;;10.33;;
2840;SDS011;53423;49.224;12.074;2022-11-11T00:53:07;33.07;;;11.77;;
2840;SDS011;53423;49.224;12.074;2022-11-11T00:55:37;29.50;;;11.83;;
2840;SDS011;53423;49.224;12.074;2022-11-11T00:58:05;32.60;;;11.27;;
2840;SDS011;53423;49.224;12.074;2022-11-11T01:00:33;17.43;;;10.83;;
2840;SDS011;53423;49.224;12.074;2022-11-11T01:03:01;25.77;;;12.17;;
2840;SDS011;53423;49.224;12.074;2022-11-11T01:05:29;23.30;;;11.23;;
2840;SDS011;53423;49.224;12.074;2022-11-11T01:07:56;26.33;;;12.37;;
2840;SDS011;53423;49.224;12.074;2022-11-11T01:10:24;33.43;;;12.80;;
2840;SDS011;53423;49.224;12.074;2022-11-11T01:13:06;28.40;;;13.83;;
2840;SDS011;53423;49.224;12.074;2022-11-11T01:15:42;34.63;;;15.27;;
2840;SDS011;53423;49.224;12.074;2022-11-11T01:18:12;29.07;;;15.33;;
2840;SDS011;53423;49.224;12.074;2022-11-11T01:20:41;41.73;;;15.33;;
2840;SDS011;53423;49.224;12.074;2022-11-11T01:23:10;31.80;;;15.53;;
2840;SDS011;53423;49.224;12.074;2022-11-11T01:25:40;46.07;;;18.13;;
2840;SDS011;53423;49.224;12.074;2022-11-11T01:28:10;46.27;;;18.07;;
2840;SDS011;53423;49.224;12.074;2022-11-11T01:30:38;38.00;;;16.87;;
2840;SDS011;53423;49.224;12.074;2022-11-11T01:33:08;31.57;;;15.27;;
2840;SDS011;53423;49.224;12.074;2022-11-11T01:35:37;23.27;;;13.20;;
2840;SDS011;53423;49.224;12.074;2022-11-11T01:38:05;27.10;;;13.97;;
2840;SDS011;53423;49.224;12.074;2022-11-11T01:40:39;26.80;;;13.17;;
2840;SDS011;53423;49.224;12.074;2022-11-11T01:43:16;40.73;;;13.10;;
2840;SDS011;53423;49.224;12.074;2022-11-11T01:45:50;25.47;;;13.77;;
2840;SDS011;53423;49.224;12.074;2022-11-11T01:48:23;32.33;;;14.73;;
2840;SDS011;53423;49.224;12.074;2022-11-11T01:51:14;56.23;;;19.73;;
2840;SDS011;53423;49.224;12.074;2022-11-11T01:53:48;56.80;;;22.23;;
2840;SDS011;53423;49.224;12.074;2022-11-11T01:56:21;42.57;;;16.07;;
2840;SDS011;53423;49.224;12.074;2022-11-11T01:58:50;25.87;;;15.00;;
2840;SDS011;53423;49.224;12.074;2022-11-11T02:01:22;39.60;;;13.90;;
2840;SDS011;53423;49.224;12.074;2022-11-11T02:03:50;46.13;;;14.73;;
2840;SDS011;53423;49.224;12.074;2022-11-11T02:06:39;30.30;;;13.73;;
2840;SDS011;53423;49.224;12.074;2022-11-11T02:09:07;49.90;;;15.60;;
2840;SDS011;53423;49.224;12.074;2022-11-11T02:11:35;32.50;;;15.70;;
2840;SDS011;53423;49.224;12.074;2022-11-11T02:14:25;35.53;;;15.70;;
2840;SDS011;53423;49.224;12.074;2022-11-11T02:17:02;38.10;;;15.30;;
2840;SDS011;53423;49.224;12.074;2022-11-11T02:19:33;83.03;;;21.43;;
2840;SDS011;53423;49.224;12.074;2022-11-11T02:22:10;62.53;;;20.70;;
2840;SDS011;53423;49.224;12.074;2022-11-11T02:24:42;53.17;;;16.50;;
2840;SDS011;53423;49.224;12.074;2022-11-11T02:27:13;41.33;;;15.33;;
2840;SDS011;53423;49.224;12.074;2022-11-11T02:29:45;46.77;;;15.10;;
2840;SDS011;53423;49.224;12.074;2022-11-11T02:32:16;39.27;;;14.73;;
2840;SDS011;53423;49.224;12.074;2022-11-11T02:34:43;35.67;;;15.23;;
2840;SDS011;53423;49.224;12.074;2022-11-11T02:37:11;49.47;;;17.13;;
2840;SDS011;53423;49.224;12.074;2022-11-11T02:42:35;65.53;;;19.03;;
2840;SDS011;53423;49.224;12.074;2022-11-11T02:45:03;43.30;;;18.10;;
2840;SDS011;53423;49.224;12.074;2022-11-11T02:47:32;49.73;;;20.17;;
2840;SDS011;53423;49.224;12.074;2022-11-11T02:49:59;50.40;;;21.43;;
2840;SDS011;53423;49.224;12.074;2022-11-11T02:52:27;39.57;;;19.10;;
2840;SDS011;53423;49.224;12.074;2022-11-11T02:54:55;42.50;;;18.70;;
2840;SDS011;53423;49.224;12.074;2022-11-11T02:57:23;42.30;;;19.03;;
2840;SDS011;53423;49.224;12.074;2022-11-11T02:59:52;35.90;;;18.30;;
2840;SDS011;53423;49.224;12.074;2022-11-11T03:02:20;43.13;;;18.53;;
2840;SDS011;53423;49.224;12.074;2022-11-11T03:04:53;24.30;;;14.80;;
2840;SDS011;53423;49.224;12.074;2022-11-11T03:07:21;26.27;;;13.57;;
2840;SDS011;53423;49.224;12.074;2022-11-11T03:09:50;27.30;;;13.43;;
2840;SDS011;53423;49.224;12.074;2022-11-11T03:12:18;25.30;;;13.47;;
2840;SDS011;53423;49.224;12.074;2022-11-11T03:14:46;22.63;;;12.53;;
2840;SDS011;53423;49.224;12.074;2022-11-11T03:17:15;25.70;;;12.83;;
2840;SDS011;53423;49.224;12.074;2022-11-11T03:20:00;28.70;;;10.93;;
2840;SDS011;53423;49.224;12.074;2022-11-11T03:22:57;18.93;;;11.53;;
2840;SDS011;53423;49.224;12.074;2022-11-11T03:25:26;21.50;;;11.77;;
2840;SDS011;53423;49.224;12.074;2022-11-11T03:28:06;17.03;;;11.50;;
2840;SDS011;53423;49.224;12.074;2022-11-11T03:30:35;14.90;;;11.10;;
2840;SDS011;53423;49.224;12.074;2022-11-11T03:33:05;22.30;;;11.93;;
2840;SDS011;53423;49.224;12.074;2022-11-11T03:35:33;29.00;;;12.50;;
2840;SDS011;53423;49.224;12.074;2022-11-11T03:38:02;21.97;;;11.87;;
2840;SDS011;53423;49.224;12.074;2022-11-11T03:40:41;18.57;;;11.70;;
2840;SDS011;53423;49.224;12.074;2022-11-11T03:43:09;25.20;;;11.60;;
2840;SDS011;53423;49.224;12.074;2022-11-11T03:45:37;23.63;;;10.67;;
2840;SDS011;53423;49.224;12.074;2022-11-11T03:48:07;23.17;;;10.90;;
2840;SDS011;53423;49.224;12.074;2022-11-11T03:50:35;21.07;;;11.13;;
2840;SDS011;53423;49.224;12.074;2022-11-11T03:53:03;17.40;;;10.97;;
2840;SDS011;53423;49.224;12.074;2022-11-11T03:55:31;15.87;;;11.87;;
2840;SDS011;53423;49.224;12.074;2022-11-11T03:57:59;26.23;;;11.83;;
2840;SDS011;53423;49.224;12.074;2022-11-11T04:00:27;18.03;;;12.17;;
2840;SDS011;53423;49.224;12.074;2022-11-11T04:03:02;24.50;;;12.30;;
2840;SDS011;53423;49.224;12.074;2022-11-11T04:05:51;24.90;;;11.63;;
2840;SDS011;53423;49.224;12.074;2022-11-11T04:08:42;26.47;;;12.60;;
2840;SDS011;53423;49.224;12.074;2022-11-11T04:11:28;24.00;;;11.97;;
2840;SDS011;53423;49.224;12.074;2022-11-11T04:13:58;26.20;;;12.63;;
2840;SDS011;53423;49.224;12.074;2022-11-11T04:16:47;20.83;;;13.13;;
2840;SDS011;53423;49.224;12.074;2022-11-11T04:19:15;15.77;;;12.73;;
2840;SDS011;53423;49.224;12.074;2022-11-11T04:22:01;33.37;;;15.53;;
2840;SDS011;53423;49.224;12.074;2022-11-11T04:24:29;26.60;;;15.23;;
2840;SDS011;53423;49.224;12.074;2022-11-11T04:27:15;20.50;;;14.43;;
2840;SDS011;53423;49.224;12.074;2022-11-11T04:29:44;18.63;;;13.23;;
2840;SDS011;53423;49.224;12.074;2022-11-11T04:32:13;14.83;;;13.07;;
2840;SDS011;53423;49.224;12.074;2022-11-11T04:35:00;21.07;;;13.27;;
2840;SDS011;53423;49.224;12.074;2022-11-11T04:37:31;26.83;;;14.00;;
2840;SDS011;53423;49.224;12.074;2022-11-11T04:40:00;26.03;;;14.03;;
2840;SDS011;53423;49.224;12.074;2022-11-11T04:42:46;23.37;;;13.77;;
2840;SDS011;53423;49.224;12.074;2022-11-11T04:45:14;18.30;;;13.63;;
2840;SDS011;53423;49.224;12.074;2022-11-11T04:47:53;19.67;;;12.87;;
2840;SDS011;53423;49.224;12.074;2022-11-11T04:50:23;20.27;;;12.73;;
2840;SDS011;53423;49.224;12.074;2022-11-11T04:52:53;35.50;;;14.30;;
2840;SDS011;53423;49.224;12.074;2022-11-11T04:55:21;24.37;;;13.30;;
2840;SDS011;53423;49.224;12.074;2022-11-11T04:58:07;30.10;;;13.97;;
2840;SDS011;53423;49.224;12.074;2022-11-11T05:00:35;27.10;;;13.43;;
2840;SDS011;53423;49.224;12.074;2022-11-11T05:03:03;22.20;;;14.13;;
2840;SDS011;53423;49.224;12.074;2022-11-11T05:05:43;19.17;;;14.20;;
2840;SDS011;53423;49.224;12.074;2022-11-11T05:08:32;19.23;;;13.47;;
2840;SDS011;53423;49.224;12.074;2022-11-11T05:11:19;22.53;;;15.30;;
2840;SDS011;53423;49.224;12.074;2022-11-11T05:13:48;25.87;;;14.03;;
2840;SDS011;53423;49.224;12.074;2022-11-11T05:16:35;17.53;;;14.00;;
2840;SDS011;53423;49.224;12.074;2022-11-11T05:19:22;33.57;;;14.90;;
2840;SDS011;53423;49.224;12.074;2022-11-11T05:22:09;25.73;;;14.70;;
2840;SDS011;53423;49.224;12.074;2022-11-11T05:24:41;25.03;;;15.67;;
2840;SDS011;53423;49.224;12.074;2022-11-11T05:27:26;21.10;;;14.33;;
2840;SDS011;53423;49.224;12.074;2022-11-11T05:29:54;22.63;;;15.17;;
2840;SDS011;53423;49.224;12.074;2022-11-11T05:32:22;32.60;;;15.93;;
2840;SDS011;53423;49.224;12.074;2022-11-11T05:34:50;27.43;;;15.77;;
2840;SDS011;53423;49.224;12.074;2022-11-11T05:37:18;18.67;;;15.87;;
2840;SDS011;53423;49.224;12.074;2022-11-11T05:39:47;21.20;;;13.97;;
2840;SDS011;53423;49.224;12.074;2022-11-11T05:42:15;18.13;;;14.83;;
2840;SDS011;53423;49.224;12.074;2022-11-11T05:44:43;16.57;;;13.23;;
2840;SDS011;53423;49.224;12.074;2022-11-11T05:47:12;21.33;;;13.73;;
2840;SDS011;53423;49.224;12.074;2022-11-11T05:49:39;26.30;;;16.77;;
2840;SDS011;53423;49.224;12.074;2022-11-11T05:52:08;22.10;;;16.70;;
2840;SDS011;53423;49.224;12.074;2022-11-11T05:54:37;24.03;;;17.57;;
2840;SDS011;53423;49.224;12.074;2022-11-11T05:57:06;28.10;;;20.97;;
2840;SDS011;53423;49.224;12.074;2022-11-11T05:59:34;26.00;;;20.70;;
2840;SDS011;53423;49.224;12.074;2022-11-11T06:02:02;21.33;;;15.77;;
2840;SDS011;53423;49.224;12.074;2022-11-11T06:04:30;23.07;;;14.80;;
2840;SDS011;53423;49.224;12.074;2022-11-11T06:06:59;24.47;;;13.30;;
2840;SDS011;53423;49.224;12.074;2022-11-11T06:09:27;17.40;;;13.73;;
2840;SDS011;53423;49.224;12.074;2022-11-11T06:11:55;16.87;;;14.20;;
2840;SDS011;53423;49.224;12.074;2022-11-11T06:14:24;20.20;;;14.50;;
2840;SDS011;53423;49.224;12.074;2022-11-11T06:16:52;20.57;;;13.83;;
2840;SDS011;53423;49.224;12.074;2022-11-11T06:19:20;28.10;;;15.70;;
2840;SDS011;53423;49.224;12.074;2022-11-11T06:21:47;17.73;;;15.03;;
2840;SDS011;53423;49.224;12.074;2022-11-11T06:24:26;23.80;;;15.63;;
2840;SDS011;53423;49.224;12.074;2022-11-11T06:26:53;21.27;;;14.30;;
2840;SDS011;53423;49.224;12.074;2022-11-11T06:29:21;22.70;;;16.23;;
2840;SDS011;53423;49.224;12.074;2022-11-11T06:31:50;21.53;;;15.50;;
2840;SDS011;53423;49.224;12.074;2022-11-11T06:34:18;20.87;;;15.13;;
2840;SDS011;53423;49.224;12.074;2022-11-11T06:36:45;22.17;;;15.33;;
2840;SDS011;53423;49.224;12.074;2022-11-11T06:39:13;25.70;;;15.80;;
2840;SDS011;53423;49.224;12.074;2022-11-11T06:41:41;32.40;;;17.20;;
2840;SDS011;53423;49.224;12.074;2022-11-11T06:44:09;29.00;;;17.07;;
2840;SDS011;53423;49.224;12.074;2022-11-11T06:46:36;30.80;;;15.53;;
2840;SDS011;53423;49.224;12.074;2022-11-11T06:49:05;26.57;;;15.20;;
2840;SDS011;53423;49.224;12.074;2022-11-11T06:51:34;20.97;;;14.40;;
2840;SDS011;53423;49.224;12.074;2022-11-11T06:54:02;21.07;;;14.80;;
2840;SDS011;53423;49.224;12.074;2022-11-11T06:56:30;24.13;;;14.63;;
2840;SDS011;53423;49.224;12.074;2022-11-11T06:58:57;25.70;;;15.33;;
2840;SDS011;53423;49.224;12.074;2022-11-11T07:01:25;24.27;;;14.57;;
2840;SDS011;53423;49.224;12.074;2022-11-11T07:03:53;28.27;;;15.23;;
2840;SDS011;53423;49.224;12.074;2022-11-11T07:06:22;25.17;;;16.50;;
2840;SDS011;53423;49.224;12.074;2022-11-11T07:08:50;35.53;;;18.47;;
2840;SDS011;53423;49.224;12.074;2022-11-11T07:11:17;40.60;;;17.33;;
2840;SDS011;53423;49.224;12.074;2022-11-11T07:13:45;29.30;;;14.97;;
2840;SDS011;53423;49.224;12.074;2022-11-11T07:16:13;25.80;;;16.27;;
2840;SDS011;53423;49.224;12.074;2022-11-11T07:18:40;25.47;;;15.23;;
2840;SDS011;53423;49.224;12.074;2022-11-11T07:21:08;32.80;;;16.17;;
2840;SDS011;53423;49.224;12.074;2022-11-11T07:23:37;29.33;;;15.10;;
2840;SDS011;53423;49.224;12.074;2022-11-11T07:26:05;24.73;;;15.90;;
2840;SDS011;53423;49.224;12.074;2022-11-11T07:28:33;33.53;;;15.23;;
2840;SDS011;53423;49.224;12.074;2022-11-11T07:31:00;22.37;;;14.90;;
2840;SDS011;53423;49.224;12.074;2022-11-11T07:33:28;25.60;;;14.80;;
2840;SDS011;53423;49.224;12.074;2022-11-11T07:35:56;29.50;;;16.37;;
2840;SDS011;53423;49.224;12.074;2022-11-11T07:38:23;26.67;;;16.20;;
2840;SDS011;53423;49.224;12.074;2022-11-11T07:40:53;25.27;;;17.50;;
2840;SDS011;53423;49.224;12.074;2022-11-11T07:43:21;25.67;;;16.53;;
2840;SDS011;53423;49.224;12.074;2022-11-11T07:45:50;25.73;;;16.40;;
2840;SDS011;53423;49.224;12.074;2022-11-11T07:48:18;21.43;;;16.33;;
2840;SDS011;53423;49.224;12.074;2022-11-11T07:50:46;28.67;;;16.50;;
2840;SDS011;53423;49.224;12.074;2022-11-11T07:53:13;22.97;;;16.20;;
2840;SDS011;53423;49.224;12.074;2022-11-11T07:55:41;21.97;;;15.43;;
2840;SDS011;53423;49.224;12.074;2022-11-11T07:58:12;24.97;;;14.60;;
2840;SDS011;53423;49.224;12.074;2022-11-11T08:00:40;21.60;;;13.13;;
2840;SDS011;53423;49.224;12.074;2022-11-11T08:03:08;18.97;;;14.43;;
2840;SDS011;53423;49.224;12.074;2022-11-11T08:05:35;21.03;;;13.70;;
2840;SDS011;53423;49.224;12.074;2022-11-11T08:08:03;20.20;;;14.33;;
2840;SDS011;53423;49.224;12.074;2022-11-11T08:10:32;16.70;;;12.93;;
2840;SDS011;53423;49.224;12.074;2022-11-11T08:13:01;25.77;;;14.40;;
2840;SDS011;53423;49.224;12.074;2022-11-11T08:15:48;18.43;;;12.43;;
2840;SDS011;53423;49.224;12.074;2022-11-11T08:18:16;19.93;;;13.40;;
2840;SDS011;53423;49.224;12.074;2022-11-11T08:20:44;18.97;;;13.23;;
2840;SDS011;53423;49.224;12.074;2022-11-11T08:23:19;19.80;;;12.43;;
2840;SDS011;53423;49.224;12.074;2022-11-11T08:26:17;20.43;;;14.00;;
2840;SDS011;53423;49.224;12.074;2022-11-11T08:28:53;20.37;;;14.63;;
2840;SDS011;53423;49.224;12.074;2022-11-11T08:31:22;20.20;;;14.57;;
2840;SDS011;53423;49.224;12.074;2022-11-11T08:33:49;22.80;;;13.97;;
2840;SDS011;53423;49.224;12.074;2022-11-11T08:36:17;20.53;;;14.50;;
2840;SDS011;53423;49.224;12.074;2022-11-11T08:38:46;25.73;;;17.00;;
2840;SDS011;53423;49.224;12.074;2022-11-11T08:41:14;28.80;;;16.13;;
2840;SDS011;53423;49.224;12.074;2022-11-11T08:43:42;39.00;;;28.43;;
2840;SDS011;53423;49.224;12.074;2022-11-11T08:46:10;34.77;;;28.17;;
2840;SDS011;53423;49.224;12.074;2022-11-11T08:48:39;34.40;;;26.23;;
2840;SDS011;53423;49.224;12.074;2022-11-11T08:51:07;33.60;;;23.77;;
2840;SDS011;53423;49.224;12.074;2022-11-11T08:53:34;21.20;;;14.37;;
2840;SDS011;53423;49.224;12.074;2022-11-11T08:56:02;21.77;;;15.03;;
2840;SDS011;53423;49.224;12.074;2022-11-11T08:58:30;22.03;;;17.83;;
2840;SDS011;53423;49.224;12.074;2022-11-11T09:00:58;26.57;;;19.00;;
2840;SDS011;53423;49.224;12.074;2022-11-11T09:03:29;33.43;;;20.93;;
2840;SDS011;53423;49.224;12.074;2022-11-11T09:05:58;28.80;;;17.93;;
2840;SDS011;53423;49.224;12.074;2022-11-11T09:08:26;23.53;;;16.43;;
2840;SDS011;53423;49.224;12.074;2022-11-11T09:10:56;17.80;;;14.83;;
2840;SDS011;53423;49.224;12.074;2022-11-11T09:13:24;16.60;;;13.40;;
2840;SDS011;53423;49.224;12.074;2022-11-11T09:15:52;20.70;;;14.37;;
2840;SDS011;53423;49.224;12.074;2022-11-11T09:18:20;17.87;;;15.07;;
2840;SDS011;53423;49.224;12.074;2022-11-11T09:20:48;21.60;;;17.33;;
2840;SDS011;53423;49.224;12.074;2022-11-11T09:23:17;23.37;;;18.57;;
2840;SDS011;53423;49.224;12.074;2022-11-11T09:25:45;21.17;;;16.57;;
2840;SDS011;53423;49.224;12.074;2022-11-11T09:28:12;17.57;;;14.17;;
2840;SDS011;53423;49.224;12.074;2022-11-11T09:30:40;15.33;;;13.23;;
2840;SDS011;53423;49.224;12.074;2022-11-11T09:35:36;24.53;;;14.10;;
2840;SDS011;53423;49.224;12.074;2022-11-11T09:38:04;18.70;;;15.53;;
2840;SDS011;53423;49.224;12.074;2022-11-11T09:40:38;19.67;;;14.80;;
2840;SDS011;53423;49.224;12.074;2022-11-11T09:43:16;21.90;;;17.43;;
2840;SDS011;53423;49.224;12.074;2022-11-11T09:45:57;20.03;;;15.50;;
2840;SDS011;53423;49.224;12.074;2022-11-11T09:48:39;21.50;;;15.80;;
2840;SDS011;53423;49.224;12.074;2022-11-11T09:51:19;20.77;;;16.50;;
2840;SDS011;53423;49.224;12.074;2022-11-11T09:53:52;20.17;;;16.23;;
2840;SDS011;53423;49.224;12.074;2022-11-11T09:56:25;17.87;;;14.87;;
2840;SDS011;53423;49.224;12.074;2022-11-11T09:58:58;15.57;;;13.90;;
2840;SDS011;53423;49.224;12.074;2022-11-11T10:01:32;15.43;;;13.83;;
2840;SDS011;53423;49.224;12.074;2022-11-11T10:04:13;14.40;;;12.97;;
2840;SDS011;53423;49.224;12.074;2022-11-11T10:06:50;13.87;;;12.50;;
2840;SDS011;53423;49.224;12.074;2022-11-11T10:09:24;13.83;;;12.53;;
2840;SDS011;53423;49.224;12.074;2022-11-11T10:12:00;14.30;;;12.43;;
2840;SDS011;53423;49.224;12.074;2022-11-11T10:14:35;13.73;;;12.43;;
2840;SDS011;53423;49.224;12.074;2022-11-11T10:17:06;13.53;;;12.13;;
2840;SDS011;53423;49.224;12.074;2022-11-11T10:19:45;13.77;;;12.47;;
2840;SDS011;53423;49.224;12.074;2022-11-11T10:22:24;11.63;;;10.53;;
2840;SDS011;53423;49.224;12.074;2022-11-11T10:27:50;12.63;;;11.43;;
2840;SDS011;53423;49.224;12.074;2022-11-11T10:30:20;12.30;;;11.17;;
2840;SDS011;53423;49.224;12.074;2022-11-11T10:32:57;12.97;;;11.67;;
2840;SDS011;53423;49.224;12.074;2022-11-11T10:35:29;12.33;;;11.20;;
2840;SDS011;53423;49.224;12.074;2022-11-11T10:38:01;13.40;;;12.07;;
2840;SDS011;53423;49.224;12.074;2022-11-11T10:40:40;13.10;;;11.80;;
2840;SDS011;53423;49.224;12.074;2022-11-11T10:43:17;14.07;;;12.77;;
2840;SDS011;53423;49.224;12.074;2022-11-11T10:45:50;14.00;;;12.70;;
2840;SDS011;53423;49.224;12.074;2022-11-11T10:48:28;13.93;;;12.53;;
2840;SDS011;53423;49.224;12.074;2022-11-11T10:51:08;14.43;;;13.03;;
2840;SDS011;53423;49.224;12.074;2022-11-11T10:53:40;13.03;;;11.83;;
2840;SDS011;53423;49.224;12.074;2022-11-11T10:56:16;13.67;;;12.37;;
2840;SDS011;53423;49.224;12.074;2022-11-11T10:58:51;13.83;;;12.63;;
2840;SDS011;53423;49.224;12.074;2022-11-11T11:01:26;13.37;;;12.17;;
2840;SDS011;53423;49.224;12.074;2022-11-11T11:03:58;12.60;;;11.50;;
2840;SDS011;53423;49.224;12.074;2022-11-11T11:06:31;13.67;;;12.47;;
2840;SDS011;53423;49.224;12.074;2022-11-11T11:09:02;12.93;;;11.73;;
2840;SDS011;53423;49.224;12.074;2022-11-11T11:11:39;13.40;;;12.20;;
2840;SDS011;53423;49.224;12.074;2022-11-11T11:14:15;13.53;;;12.43;;
2840;SDS011;53423;49.224;12.074;2022-11-11T11:16:48;14.30;;;13.00;;
2840;SDS011;53423;49.224;12.074;2022-11-11T11:19:21;14.33;;;13.13;;
2840;SDS011;53423;49.224;12.074;2022-11-11T11:21:50;14.37;;;13.07;;
2840;SDS011;53423;49.224;12.074;2022-11-11T11:24:21;13.70;;;12.50;;
2840;SDS011;53423;49.224;12.074;2022-11-11T11:26:52;13.60;;;12.40;;
2840;SDS011;53423;49.224;12.074;2022-11-11T11:29:27;14.17;;;12.87;;
2840;SDS011;53423;49.224;12.074;2022-11-11T11:32:10;14.33;;;13.00;;
2840;SDS011;53423;49.224;12.074;2022-11-11T11:34:44;14.47;;;13.23;;
2840;SDS011;53423;49.224;12.074;2022-11-11T11:37:13;14.03;;;12.63;;
2840;SDS011;53423;49.224;12.074;2022-11-11T11:39:42;14.63;;;13.33;;
2840;SDS011;53423;49.224;12.074;2022-11-11T11:44:58;14.20;;;12.90;;
2840;SDS011;53423;49.224;12.074;2022-11-11T11:47:45;14.80;;;13.50;;
2840;SDS011;53423;49.224;12.074;2022-11-11T11:50:40;15.10;;;13.70;;
2840;SDS011;53423;49.224;12.074;2022-11-11T11:53:21;14.07;;;12.77;;
2840;SDS011;53423;49.224;12.074;2022-11-11T11:56:02;15.10;;;13.70;;
2840;SDS011;53423;49.224;12.074;2022-11-11T11:58:41;14.87;;;13.57;;
2840;SDS011;53423;49.224;12.074;2022-11-11T12:01:23;16.03;;;14.50;;
2840;SDS011;53423;49.224;12.074;2022-11-11T12:04:11;16.67;;;15.10;;
2840;SDS011;53423;49.224;12.074;2022-11-11T12:07:09;16.40;;;14.90;;
2840;SDS011;53423;49.224;12.074;2022-11-11T12:09:45;16.10;;;14.53;;
2840;SDS011;53423;49.224;12.074;2022-11-11T12:12:25;16.63;;;15.00;;
2840;SDS011;53423;49.224;12.074;2022-11-11T12:15:03;16.90;;;15.20;;
2840;SDS011;53423;49.224;12.074;2022-11-11T12:17:46;17.07;;;15.47;;
2840;SDS011;53423;49.224;12.074;2022-11-11T12:20:23;16.00;;;14.50;;
2840;SDS011;53423;49.224;12.074;2022-11-11T12:22:56;18.13;;;16.37;;
2840;SDS011;53423;49.224;12.074;2022-11-11T12:25:44;17.97;;;16.20;;
2840;SDS011;53423;49.224;12.074;2022-11-11T12:28:24;18.43;;;16.53;;
2840;SDS011;53423;49.224;12.074;2022-11-11T12:31:04;17.40;;;15.70;;
2840;SDS011;53423;49.224;12.074;2022-11-11T12:33:50;17.47;;;15.77;;
2840;SDS011;53423;49.224;12.074;2022-11-11T12:36:34;17.87;;;16.07;;
2840;SDS011;53423;49.224;12.074;2022-11-11T12:39:10;17.83;;;15.97;;
2840;SDS011;53423;49.224;12.074;2022-11-11T12:42:06;18.20;;;16.30;;
2840;SDS011;53423;49.224;12.074;2022-11-11T12:44:43;20.03;;;18.13;;
2840;SDS011;53423;49.224;12.074;2022-11-11T12:47:23;18.70;;;16.87;;
2840;SDS011;53423;49.224;12.074;2022-11-11T12:49:57;18.43;;;16.63;;
2840;SDS011;53423;49.224;12.074;2022-11-11T12:52:42;19.77;;;17.67;;
2840;SDS011;53423;49.224;12.074;2022-11-11T12:55:20;20.53;;;18.27;;
2840;SDS011;53423;49.224;12.074;2022-11-11T12:57:58;18.17;;;16.23;;
2840;SDS011;53423;49.224;12.074;2022-11-11T13:00:33;19.27;;;17.37;;
2840;SDS011;53423;49.224;12.074;2022-11-11T13:03:13;19.57;;;17.77;;
2840;SDS011;53423;49.224;12.074;2022-11-11T13:05:56;18.37;;;16.47;;
2840;SDS011;53423;49.224;12.074;2022-11-11T13:08:45;20.07;;;17.40;;
2840;SDS011;53423;49.224;12.074;2022-11-11T13:11:23;19.43;;;17.53;;
2840;SDS011;53423;49.224;12.074;2022-11-11T13:14:05;23.27;;;18.37;;
2840;SDS011;53423;49.224;12.074;2022-11-11T13:16:45;19.20;;;17.27;;
2840;SDS011;53423;49.224;12.074;2022-11-11T13:19:13;20.03;;;17.87;;
2840;SDS011;53423;49.224;12.074;2022-11-11T13:21:49;20.23;;;18.03;;
2840;SDS011;53423;49.224;12.074;2022-11-11T13:24:22;20.77;;;18.57;;
2840;SDS011;53423;49.224;12.074;2022-11-11T13:26:51;22.40;;;19.87;;
2840;SDS011;53423;49.224;12.074;2022-11-11T13:32:30;20.73;;;18.17;;
2840;SDS011;53423;49.224;12.074;2022-11-11T13:35:19;21.97;;;19.30;;
2840;SDS011;53423;49.224;12.074;2022-11-11T13:37:52;21.20;;;18.67;;
2840;SDS011;53423;49.224;12.074;2022-11-11T13:40:25;20.93;;;18.73;;
2840;SDS011;53423;49.224;12.074;2022-11-11T13:43:01;22.13;;;19.80;;
2840;SDS011;53423;49.224;12.074;2022-11-11T13:45:32;21.77;;;19.60;;
2840;SDS011;53423;49.224;12.074;2022-11-11T13:48:02;21.33;;;19.03;;
2840;SDS011;53423;49.224;12.074;2022-11-11T13:50:32;22.07;;;19.53;;
2840;SDS011;53423;49.224;12.074;2022-11-11T13:53:06;21.90;;;18.57;;
2840;SDS011;53423;49.224;12.074;2022-11-11T13:55:41;21.20;;;18.90;;
2840;SDS011;53423;49.224;12.074;2022-11-11T13:58:17;21.53;;;19.33;;
2840;SDS011;53423;49.224;12.074;2022-11-11T14:00:54;22.33;;;19.90;;
2840;SDS011;53423;49.224;12.074;2022-11-11T14:03:35;22.13;;;19.77;;
2840;SDS011;53423;49.224;12.074;2022-11-11T14:06:47;22.00;;;19.70;;
2840;SDS011;53423;49.224;12.074;2022-11-11T14:12:36;25.33;;;22.83;;
2840;SDS011;53423;49.224;12.074;2022-11-11T14:18:09;29.13;;;26.07;;
2840;SDS011;53423;49.224;12.074;2022-11-11T14:20:58;25.90;;;23.13;;
2840;SDS011;53423;49.224;12.074;2022-11-11T14:23:30;23.97;;;21.63;;
2840;SDS011;53423;49.224;12.074;2022-11-11T14:28:58;21.07;;;19.00;;
2840;SDS011;53423;49.224;12.074;2022-11-11T14:31:40;22.57;;;20.47;;
2840;SDS011;53423;49.224;12.074;2022-11-11T14:34:28;25.83;;;23.10;;
2840;SDS011;53423;49.224;12.074;2022-11-11T14:37:19;25.07;;;22.33;;
2840;SDS011;53423;49.224;12.074;2022-11-11T14:39:52;23.53;;;21.00;;
2840;SDS011;53423;49.224;12.074;2022-11-11T14:54:05;24.07;;;21.60;;
2840;SDS011;53423;49.224;12.074;2022-11-11T14:56:42;25.77;;;23.07;;
2840;SDS011;53423;49.224;12.074;2022-11-11T14:59:12;24.77;;;21.33;;
2840;SDS011;53423;49.224;12.074;2022-11-11T15:01:43;25.30;;;22.80;;
2840;SDS011;53423;49.224;12.074;2022-11-11T15:04:13;24.23;;;21.73;;
2840;SDS011;53423;49.224;12.074;2022-11-11T15:06:42;22.87;;;20.67;;
2840;SDS011;53423;49.224;12.074;2022-11-11T15:09:18;23.53;;;21.13;;
2840;SDS011;53423;49.224;12.074;2022-11-11T15:12:12;23.73;;;20.20;;
2840;SDS011;53423;49.224;12.074;2022-11-11T15:14:53;23.20;;;20.80;;
2840;SDS011;53423;49.224;12.074;2022-11-11T15:17:42;22.90;;;20.53;;
2840;SDS011;53423;49.224;12.074;2022-11-11T15:20:25;23.40;;;21.10;;
2840;SDS011;53423;49.224;12.074;2022-11-11T15:23:03;22.70;;;20.30;;
2840;SDS011;53423;49.224;12.074;2022-11-11T15:25:41;23.57;;;21.03;;
2840;SDS011;53423;49.224;12.074;2022-11-11T15:28:20;23.50;;;21.10;;
2840;SDS011;53423;49.224;12.074;2022-11-11T15:31:07;25.30;;;22.80;;
2840;SDS011;53423;49.224;12.074;2022-11-11T15:33:48;29.97;;;26.97;;